Time;durP1;ratioP1;P1;durP2;ratioP2;P2;SDS_P1;SDS_P2;PMS_P1;PMS_P2;Temp;Humidity;BMP_temperature;BMP_pressure;BME280_temperature;BME280_humidity;BME280_pressure;Samples;Min_cycle;Max_cycle;Signal;HPM_P1;HPM_P2
2023/01/28 00:01:35;;;;;;;32.83;22.75;;;;;;;1.41;99.00;102814.47;5113280;28;20023;-54
2023/01/28 00:04:01;;;;;;;35.15;23.63;;;;;;;1.42;99.48;102811.19;5113218;28;20053;-53
2023/01/28 00:06:26;;;;;;;32.47;22.48;;;;;;;1.41;98.74;102808.50;5112094;28;20110;-52
2023/01/28 00:08:51;;;;;;;33.92;22.10;;;;;;;1.40;98.32;102816.84;5113650;28;20023;-53
2023/01/28 00:11:17;;;;;;;31.38;21.33;;;;;;;1.40;97.57;102827.03;5113547;28;20019;-53
2023/01/28 00:13:42;;;;;;;32.22;21.08;;;;;;;1.41;97.65;102817.00;5112383;28;20054;-53
2023/01/28 00:16:08;;;;;;;34.15;22.83;;;;;;;1.41;98.15;102828.81;5113390;28;20383;-53
2023/01/28 00:18:34;;;;;;;32.75;22.15;;;;;;;1.40;98.71;102829.56;5113009;28;20076;-53
2023/01/28 00:21:06;;;;;;;34.05;22.20;;;;;;;1.41;97.89;102838.97;5112735;28;20027;-53
2023/01/28 00:23:34;;;;;;;33.28;23.13;;;;;;;1.40;98.75;102832.09;5113101;28;20027;-53
2023/01/28 00:26:02;;;;;;;33.38;23.33;;;;;;;1.39;98.77;102835.38;5112711;28;20015;-53
2023/01/28 00:28:28;;;;;;;32.60;23.17;;;;;;;1.37;99.46;102839.41;5105848;28;20455;-53
2023/01/28 00:30:53;;;;;;;31.50;22.63;;;;;;;1.33;99.01;102828.06;5092828;28;20030;-53
2023/01/28 00:33:19;;;;;;;32.42;22.52;;;;;;;1.31;98.76;102827.88;5092109;28;20024;-53
2023/01/28 00:35:44;;;;;;;32.58;22.25;;;;;;;1.30;100.00;102835.34;5092930;28;20081;-53
2023/01/28 00:38:10;;;;;;;34.30;21.88;;;;;;;1.28;99.76;102837.75;5092795;28;20110;-53
2023/01/28 00:40:35;;;;;;;32.80;22.98;;;;;;;1.26;100.00;102833.25;5091680;28;20067;-54
2023/01/28 00:43:01;;;;;;;34.05;22.33;;;;;;;1.26;99.74;102843.44;5092807;28;20064;-53
2023/01/28 00:45:26;;;;;;;30.73;21.65;;;;;;;1.24;98.84;102848.34;5092310;28;20115;-53
2023/01/28 00:47:52;;;;;;;30.60;21.90;;;;;;;1.23;99.08;102838.94;5092181;28;20503;-53
2023/01/28 00:50:20;;;;;;;32.33;21.98;;;;;;;1.24;97.29;102838.19;5092717;28;20067;-53
2023/01/28 00:52:45;;;;;;;29.80;21.25;;;;;;;1.26;97.19;102838.34;5092464;28;20097;-52
2023/01/28 00:55:11;;;;;;;30.80;22.27;;;;;;;1.27;96.96;102841.03;5092045;28;20020;-52
2023/01/28 00:57:36;;;;;;;33.50;22.92;;;;;;;1.25;97.64;102837.47;5092380;28;20111;-54
2023/01/28 01:00:02;;;;;;;32.78;22.08;;;;;;;1.24;98.68;102850.91;5092670;28;20119;-53
2023/01/28 01:02:27;;;;;;;33.40;22.75;;;;;;;1.22;99.51;102848.94;5091934;28;20103;-54
2023/01/28 01:04:58;;;;;;;33.35;22.92;;;;;;;1.20;100.00;102845.34;5092325;28;20055;-53
2023/01/28 01:07:31;;;;;;;34.80;23.52;;;;;;;1.19;99.46;102852.09;5092679;28;20459;-52
2023/01/28 01:10:00;;;;;;;35.65;24.08;;;;;;;1.18;98.42;102844.31;5092055;28;20032;-52
2023/01/28 01:12:26;;;;;;;34.45;23.20;;;;;;;1.17;99.15;102838.31;5092421;28;20098;-54
2023/01/28 01:14:51;;;;;;;34.28;23.95;;;;;;;1.17;99.05;102838.31;5092423;28;20165;-53
2023/01/28 01:17:17;;;;;;;35.97;24.92;;;;;;;1.15;98.95;102844.91;5091752;28;20027;-53
2023/01/28 01:19:42;;;;;;;36.75;24.13;;;;;;;1.15;99.92;102844.91;5095931;28;20028;-53
2023/01/28 01:22:07;;;;;;;37.40;24.27;;;;;;;1.14;100.00;102848.19;5095405;28;20028;-54
2023/01/28 01:24:33;;;;;;;35.33;24.05;;;;;;;1.14;100.00;102845.66;5095794;28;20043;-53
2023/01/28 01:26:59;;;;;;;33.75;23.48;;;;;;;1.12;100.00;102844.59;5096251;28;20035;-53
2023/01/28 01:29:24;;;;;;;34.70;24.00;;;;;;;1.11;100.00;102840.25;5095205;28;20031;-53
2023/01/28 01:31:49;;;;;;;34.97;23.77;;;;;;;1.09;99.32;102835.00;5095637;28;20024;-53
2023/01/28 01:34:15;;;;;;;36.35;24.55;;;;;;;1.09;99.06;102839.22;5096174;28;20031;-53
2023/01/28 01:36:42;;;;;;;32.75;23.63;;;;;;;1.10;98.60;102833.38;5095052;28;20024;-52
2023/01/28 01:39:11;;;;;;;34.15;23.15;;;;;;;1.08;99.83;102838.28;5096060;28;20059;-53
2023/01/28 01:41:36;;;;;;;34.92;23.83;;;;;;;1.07;100.00;102835.59;5095475;28;20142;-53
2023/01/28 01:44:03;;;;;;;36.40;24.50;;;;;;;1.05;100.00;102852.34;5095104;28;20099;-53
2023/01/28 01:46:32;;;;;;;36.40;24.38;;;;;;;1.04;100.00;102851.44;5095425;28;20024;-52
2023/01/28 01:49:05;;;;;;;33.50;23.33;;;;;;;1.03;99.01;102848.75;5095820;28;20031;-52
2023/01/28 01:51:33;;;;;;;34.15;23.55;;;;;;;1.03;98.75;102853.81;5094520;28;20460;-54
2023/01/28 01:53:59;;;;;;;35.13;24.63;;;;;;;1.03;99.23;102846.22;5095649;28;20106;-53
2023/01/28 01:56:31;;;;;;;36.05;24.30;;;;;;;1.01;99.68;102852.75;5095469;28;20031;-53
2023/01/28 01:58:57;;;;;;;35.00;24.75;;;;;;;1.03;97.65;102846.22;5094943;28;20039;-53
2023/01/28 02:01:26;;;;;;;31.83;22.65;;;;;;;1.06;97.61;102855.03;5095678;28;20032;-53
2023/01/28 02:04:16;;;;;;;33.28;22.92;;;;;;;1.06;97.26;102849.97;5095252;28;20047;-53
2023/01/28 02:06:41;;;;;;;34.80;24.40;;;;;;;1.06;96.56;102855.03;5095179;28;20023;-53
2023/01/28 02:09:21;;;;;;;34.22;23.60;;;;;;;1.08;97.08;102855.19;5095542;28;20020;-53
2023/01/28 02:11:47;;;;;;;31.15;22.23;;;;;;;1.03;98.35;102853.81;5094421;28;20111;-53
2023/01/28 02:14:13;;;;;;;32.90;22.58;;;;;;;1.03;98.56;102856.38;5095149;28;20540;-53
2023/01/28 02:16:38;;;;;;;31.92;22.60;;;;;;;1.02;97.89;102864.72;5094920;28;20134;-53
2023/01/28 02:19:06;;;;;;;33.75;23.52;;;;;;;1.00;98.64;102861.16;5094462;28;20020;-53
2023/01/28 02:21:53;;;;;;;33.25;23.15;;;;;;;0.99;100.00;102857.69;5094748;28;20055;-52
2023/01/28 02:24:24;;;;;;;32.38;22.55;;;;;;;0.98;100.00;102859.34;5095031;28;20395;-53
2023/01/28 02:27:07;;;;;;;35.38;22.75;;;;;;;1.00;100.00;102848.44;5094137;28;20027;-53
2023/01/28 02:29:41;;;;;;;35.78;24.08;;;;;;;0.95;99.00;102848.84;5094076;28;20035;-53
2023/01/28 02:32:16;;;;;;;30.92;21.83;;;;;;;0.93;98.21;102851.97;5094882;28;20496;-53
2023/01/28 02:34:50;;;;;;;33.47;22.77;;;;;;;0.91;98.18;102849.31;5094047;28;20032;-53
2023/01/28 02:37:26;;;;;;;31.17;22.02;;;;;;;0.90;99.59;102851.69;5094870;28;20089;-54
2023/01/28 02:39:57;;;;;;;31.42;22.33;;;;;;;0.89;99.73;102844.81;5094117;28;20035;-53
2023/01/28 02:42:36;;;;;;;30.80;21.55;;;;;;;0.90;98.54;102847.50;5094678;28;20024;-53
2023/01/28 02:45:02;;;;;;;31.73;23.00;;;;;;;0.87;99.17;102847.19;5094582;28;20422;-52
2023/01/28 02:50:15;;;;;;;30.58;22.52;;;;;;;0.86;96.95;102849.59;5094579;28;20548;-53
2023/01/28 02:55:51;;;;;;;30.20;21.92;;;;;;;0.85;96.88;102863.03;5093750;28;20039;-53
2023/01/28 02:58:47;;;;;;;32.42;22.25;;;;;;;0.84;97.65;102858.69;5094511;28;20051;-53
2023/01/28 03:01:12;;;;;;;32.47;22.48;;;;;;;0.82;98.17;102858.53;5093768;28;20034;-54
2023/01/28 03:03:44;;;;;;;30.80;21.63;;;;;;;0.80;97.43;102857.47;5093794;28;20044;-53
2023/01/28 03:06:16;;;;;;;31.88;21.55;;;;;;;0.78;97.99;102867.47;5094253;28;20039;-53
2023/01/28 03:36:52;;;;;;;32.75;22.98;;;;;;;0.72;98.52;102865.94;5092896;28;20046;-53
2023/01/28 03:39:20;;;;;;;34.80;23.88;;;;;;;0.71;99.60;102867.59;5093542;28;20495;-53
2023/01/28 03:41:59;;;;;;;33.05;23.45;;;;;;;0.71;100.00;102869.22;5092644;28;20051;-53
2023/01/28 03:47:10;;;;;;;36.75;24.80;;;;;;;0.66;100.00;102866.22;5094205;28;20111;-53
2023/01/28 03:49:53;;;;;;;34.90;24.48;;;;;;;0.63;100.00;102861.75;5093076;28;20417;-53
2023/01/28 03:52:24;;;;;;;39.25;25.65;;;;;;;0.63;100.00;102855.75;5093534;28;20027;-52
2023/01/28 03:54:51;;;;;;;35.88;25.08;;;;;;;0.62;100.00;102865.00;5093257;28;20043;-53
2023/01/28 03:57:18;;;;;;;34.67;25.35;;;;;;;0.60;100.00;102866.47;5092687;28;20030;-53
2023/01/28 03:59:44;;;;;;;35.67;25.10;;;;;;;0.59;100.00;102864.69;5093210;28;20073;-53
2023/01/28 04:02:10;;;;;;;39.65;25.92;;;;;;;0.59;100.00;102872.28;5093113;28;20033;-53
2023/01/28 04:04:39;;;;;;;37.38;25.63;;;;;;;0.57;100.00;102880.50;5091871;28;20403;-54
2023/01/28 04:07:07;;;;;;;40.80;26.20;;;;;;;0.56;100.00;102882.16;5093307;28;20047;-53
2023/01/28 04:09:33;;;;;;;;;;;;;;;0.65;100.00;102885.63;5093355;28;20024;-53
2023/01/28 04:11:58;;;;;;;40.10;26.10;;;;;;;0.54;100.00;102886.16;5092320;28;20262;-54
2023/01/28 04:14:23;;;;;;;38.10;25.88;;;;;;;0.53;100.00;102889.44;5093305;28;20020;-53
2023/01/28 04:16:49;;;;;;;40.20;26.77;;;;;;;0.53;100.00;102886.00;5092905;28;20395;-52
2023/01/28 04:19:14;;;;;;;39.70;26.45;;;;;;;0.50;100.00;102889.13;5092410;28;20425;-53
2023/01/28 04:21:40;;;;;;;38.90;26.58;;;;;;;0.48;100.00;102885.53;5092772;28;20070;-53
2023/01/28 04:24:06;;;;;;;36.92;25.45;;;;;;;0.46;100.00;102890.44;5092862;28;20111;-53
2023/01/28 04:26:31;;;;;;;41.10;26.92;;;;;;;0.45;100.00;102883.59;5092114;28;20032;-54
2023/01/28 04:28:57;;;;;;;39.90;26.55;;;;;;;0.45;100.00;102885.19;5093085;28;20028;-51
2023/01/28 04:31:25;;;;;;;40.40;25.83;;;;;;;0.44;100.00;102888.47;5093028;28;20020;-53
2023/01/28 04:33:50;;;;;;;41.30;27.60;;;;;;;0.42;100.00;102884.91;5092067;28;20468;-53
2023/01/28 04:36:16;;;;;;;40.35;26.83;;;;;;;0.42;100.00;102879.81;5092762;28;20028;-53
2023/01/28 04:38:41;;;;;;;40.53;26.40;;;;;;;0.42;100.00;102882.38;5092491;28;20027;-53
2023/01/28 04:41:06;;;;;;;40.03;25.60;;;;;;;0.41;100.00;102875.50;5092007;28;20073;-53
2023/01/28 04:43:32;;;;;;;41.10;26.63;;;;;;;0.42;100.00;102879.81;5092784;28;20027;-53
2023/01/28 04:45:57;;;;;;;41.00;26.23;;;;;;;0.41;100.00;102878.03;5092872;28;20381;-53
2023/01/28 04:48:22;;;;;;;40.92;26.90;;;;;;;0.38;100.00;102883.69;5092122;28;20035;-53
2023/01/28 04:50:47;;;;;;;39.75;26.40;;;;;;;0.39;100.00;102884.56;5092425;28;20415;-53
2023/01/28 04:53:13;;;;;;;41.35;26.98;;;;;;;0.39;100.00;102882.94;5093732;28;20105;-53
2023/01/28 04:55:38;;;;;;;39.03;25.90;;;;;;;0.38;100.00;102885.31;5096305;28;20103;-53
2023/01/28 04:58:03;;;;;;;38.15;25.27;;;;;;;0.36;100.00;102881.72;5096941;28;20023;-53
2023/01/28 05:00:29;;;;;;;38.38;25.83;;;;;;;0.35;100.00;102885.91;5095539;28;20035;-53
2023/01/28 05:02:54;;;;;;;42.88;27.65;;;;;;;0.35;100.00;102887.53;5096596;28;20039;-54
2023/01/28 05:05:20;;;;;;;42.47;27.95;;;;;;;0.32;100.00;102894.09;5096534;28;20464;-53
2023/01/28 05:07:53;;;;;;;38.83;25.80;;;;;;;0.31;100.00;102897.38;5095542;28;20421;-53
2023/01/28 05:10:19;;;;;;;38.70;26.13;;;;;;;0.32;100.00;102898.25;5096412;28;20052;-53
2023/01/28 05:12:45;;;;;;;42.15;27.90;;;;;;;0.30;100.00;102895.56;5096263;28;20097;-53
2023/01/28 05:15:10;;;;;;;37.95;24.98;;;;;;;0.29;100.00;102891.22;5095738;28;20035;-53
2023/01/28 05:17:35;;;;;;;39.97;26.35;;;;;;;0.30;100.00;102904.81;5096071;28;20020;-53
2023/01/28 05:20:01;;;;;;;39.42;25.33;;;;;;;0.27;100.00;102907.03;5096280;28;20035;-53
2023/01/28 05:22:26;;;;;;;36.90;25.10;;;;;;;0.27;100.00;102905.41;5095251;28;20024;-53
2023/01/28 05:24:51;;;;;;;35.47;24.13;;;;;;;0.25;100.00;102899.25;5096021;28;20031;-53
2023/01/28 05:27:17;;;;;;;36.08;24.40;;;;;;;0.24;100.00;102892.38;5096314;28;20118;-53
2023/01/28 05:29:42;;;;;;;34.17;23.38;;;;;;;0.24;100.00;102900.00;5095267;28;20012;-53
2023/01/28 05:32:07;;;;;;;34.67;23.33;;;;;;;0.23;100.00;102890.56;5096057;28;20101;-53
2023/01/28 05:34:33;;;;;;;34.63;22.48;;;;;;;0.23;100.00;102893.13;5095947;28;20024;-53
2023/01/28 05:36:58;;;;;;;33.53;22.90;;;;;;;0.22;100.00;102891.34;5095183;28;20020;-53
2023/01/28 05:39:24;;;;;;;30.55;22.13;;;;;;;0.22;99.91;102886.28;5095867;28;20028;-53
2023/01/28 05:41:49;;;;;;;30.13;19.98;;;;;;;0.23;97.30;102884.63;5095543;28;20112;-53
2023/01/28 05:44:14;;;;;;;33.33;22.83;;;;;;;0.23;99.31;102882.09;5095142;28;20476;-53
2023/01/28 05:46:44;;;;;;;32.85;22.70;;;;;;;0.20;98.43;102882.66;5095443;28;20077;-53
2023/01/28 05:49:12;;;;;;;32.00;21.88;;;;;;;0.17;98.67;102882.34;5095757;28;20043;-53
2023/01/28 05:51:38;;;;;;;26.33;19.60;;;;;;;0.14;95.73;102884.56;5094623;28;20020;-53
2023/01/28 05:54:05;;;;;;;26.77;17.70;;;;;;;0.14;92.90;102888.00;5095620;28;20030;-53
2023/01/28 05:56:31;;;;;;;26.27;19.33;;;;;;;0.15;93.11;102896.50;5094602;28;20418;-53
2023/01/28 05:58:56;;;;;;;27.30;19.45;;;;;;;0.16;92.39;102901.72;5095536;28;20463;-53
2023/01/28 06:01:21;;;;;;;26.95;19.02;;;;;;;0.18;91.95;102901.88;5095594;28;20036;-53
2023/01/28 06:03:47;;;;;;;27.92;20.58;;;;;;;0.19;91.94;102901.16;5093831;28;20469;-53
2023/01/28 06:06:12;;;;;;;29.92;20.85;;;;;;;0.19;93.24;102900.25;5094850;28;20028;-53
2023/01/28 06:08:37;;;;;;;29.48;20.83;;;;;;;0.20;92.81;102908.03;5095017;28;20028;-53
2023/01/28 06:11:03;;;;;;;30.20;21.70;;;;;;;0.22;92.62;102906.56;5094723;28;20095;-53
2023/01/28 06:13:28;;;;;;;30.13;21.58;;;;;;;0.23;91.92;102900.72;5095208;28;20038;-53
2023/01/28 06:15:53;;;;;;;29.58;21.52;;;;;;;0.23;92.17;102913.41;5095392;28;20035;-53
2023/01/28 06:18:19;;;;;;;30.15;21.25;;;;;;;0.23;90.18;102907.44;5094595;28;20034;-54
2023/01/28 06:20:44;;;;;;;30.38;21.75;;;;;;;0.22;91.83;102901.50;5094887;28;20388;-53
2023/01/28 06:23:09;;;;;;;31.45;22.33;;;;;;;0.22;92.18;102906.56;5095067;28;20836;-53
2023/01/28 06:25:34;;;;;;;29.85;20.50;;;;;;;0.20;93.00;102902.94;5094228;28;20036;-53
2023/01/28 06:28:00;;;;;;;32.55;22.40;;;;;;;0.20;92.01;102912.22;5095197;28;20104;-53
2023/01/28 06:30:25;;;;;;;32.15;21.58;;;;;;;0.20;91.91;102913.09;5094818;28;20024;-54
2023/01/28 06:32:54;;;;;;;32.72;22.88;;;;;;;0.17;91.32;102907.72;5094196;28;20365;-53
2023/01/28 06:35:20;;;;;;;32.20;22.65;;;;;;;0.16;91.99;102905.91;5094913;28;20422;-54
2023/01/28 06:37:46;;;;;;;30.75;21.70;;;;;;;0.17;92.19;102910.25;5094698;28;20020;-53
2023/01/28 06:40:11;;;;;;;33.88;23.35;;;;;;;0.14;91.36;102907.38;5094169;28;20024;-53
2023/01/28 06:42:36;;;;;;;32.67;23.05;;;;;;;0.14;91.96;102907.38;5094662;28;20086;-53
2023/01/28 06:45:02;;;;;;;31.92;21.83;;;;;;;0.13;90.94;102911.56;5094639;28;20047;-52
2023/01/28 06:47:27;;;;;;;29.88;21.70;;;;;;;0.11;89.68;102918.09;5093508;28;20099;-53
2023/01/28 06:49:52;;;;;;;33.10;22.27;;;;;;;0.11;89.73;102915.56;5094786;28;20027;-53
2023/01/28 06:52:18;;;;;;;34.70;22.85;;;;;;;0.10;91.07;102920.47;5094654;28;20114;-52
2023/01/28 06:54:43;;;;;;;31.75;21.98;;;;;;;0.09;91.48;102909.44;5093410;28;20028;-53
2023/01/28 06:57:08;;;;;;;32.13;22.17;;;;;;;0.08;91.81;102916.88;5094625;28;20020;-52
2023/01/28 06:59:34;;;;;;;32.22;22.15;;;;;;;0.07;91.11;102925.22;5093998;28;20383;-53
2023/01/28 07:01:59;;;;;;;31.33;21.95;;;;;;;0.05;90.68;102922.50;5093484;28;20019;-53
2023/01/28 07:04:24;;;;;;;32.63;21.67;;;;;;;0.05;91.25;102926.69;5094056;28;20097;-53
2023/01/28 07:06:50;;;;;;;31.10;21.95;;;;;;;0.03;91.21;102926.53;5093238;28;20105;-54
2023/01/28 07:09:15;;;;;;;31.25;22.80;;;;;;;0.02;92.52;102937.41;5094320;28;20027;-53
2023/01/28 07:11:40;;;;;;;30.95;23.25;;;;;;;0.01;91.50;102930.53;5093864;28;20108;-53
2023/01/28 07:14:05;;;;;;;28.98;21.15;;;;;;;0.02;89.77;102926.38;5093418;28;20468;-53
2023/01/28 07:16:31;;;;;;;28.17;21.30;;;;;;;0.01;89.84;102934.72;5093762;28;20032;-53
2023/01/28 07:18:56;;;;;;;31.38;22.73;;;;;;;-0.02;91.92;102941.25;5093933;28;20375;-53
2023/01/28 07:21:21;;;;;;;33.55;22.58;;;;;;;-0.01;91.62;102952.31;5093196;28;20024;-53
2023/01/28 07:23:46;;;;;;;33.25;22.95;;;;;;;-0.04;91.14;102946.91;5093602;28;20357;-53
2023/01/28 07:26:12;;;;;;;31.10;22.75;;;;;;;-0.02;90.03;102951.38;5093986;28;20031;-53
2023/01/28 07:28:37;;;;;;;30.83;22.35;;;;;;;0.06;90.40;102948.78;5092819;28;20035;-53
2023/01/28 07:31:02;;;;;;;32.22;22.67;;;;;;;0.00;90.70;102956.66;5093731;28;20024;-53
2023/01/28 07:33:28;;;;;;;31.40;23.08;;;;;;;-0.02;91.29;102961.53;5093399;28;20380;-53
2023/01/28 07:35:53;;;;;;;32.72;22.90;;;;;;;-0.02;89.62;102968.25;5092911;28;20027;-53
2023/01/28 07:38:18;;;;;;;31.42;23.02;;;;;;;-0.04;89.68;102963.03;5093834;28;20028;-53
2023/01/28 07:40:45;;;;;;;30.60;21.92;;;;;;;-0.02;89.61;102966.59;5093435;28;20359;-53
2023/01/28 07:43:10;;;;;;;32.63;22.73;;;;;;;-0.02;91.39;102969.13;5092929;28;20030;-53
2023/01/28 07:45:36;;;;;;;32.60;23.38;;;;;;;-0.02;90.74;102971.66;5093190;28;20028;-54
2023/01/28 07:48:04;;;;;;;32.92;23.92;;;;;;;-0.03;92.61;102969.91;5093512;28;20161;-53
2023/01/28 07:50:32;;;;;;;36.00;24.30;;;;;;;-0.02;93.54;102968.25;5092283;28;20086;-54
2023/01/28 07:52:58;;;;;;;;;;;;;;;0.11;93.56;102970.44;5094018;28;20021;-53
2023/01/28 07:55:24;;;;;;;32.67;22.65;;;;;;;0.02;92.52;102966.94;5093550;28;19917;-53
2023/01/28 07:57:52;;;;;;;32.22;23.20;;;;;;;0.01;90.43;102976.16;5092379;28;20032;-53
2023/01/28 08:00:19;;;;;;;34.00;23.00;;;;;;;0.03;90.59;102974.72;5093325;28;20089;-53
2023/01/28 08:02:46;;;;;;;31.10;22.58;;;;;;;0.07;90.52;102964.16;5092978;28;20024;-53
2023/01/28 08:05:19;;;;;;;32.35;23.45;;;;;;;0.13;90.10;102968.97;5092191;28;20429;-53
2023/01/28 08:07:45;;;;;;;30.02;21.27;;;;;;;0.15;88.83;102970.03;5092879;28;20039;-53
2023/01/28 08:10:11;;;;;;;31.15;22.60;;;;;;;0.19;89.80;102962.00;5092485;28;20069;-53
2023/01/28 08:12:38;;;;;;;36.63;23.48;;;;;;;0.23;91.08;102974.25;5092805;28;20069;-53
2023/01/28 08:15:04;;;;;;;33.38;23.08;;;;;;;0.25;90.35;102982.94;5093110;28;20459;-53
2023/01/28 08:17:29;;;;;;;30.67;22.75;;;;;;;0.27;90.85;102989.09;5091971;28;20031;-54
2023/01/28 08:19:54;;;;;;;32.05;22.50;;;;;;;0.29;91.99;102994.31;5093437;28;20024;-53
2023/01/28 08:22:24;;;;;;;31.60;22.92;;;;;;;0.30;92.47;102998.66;5093061;28;20028;-54
2023/01/28 08:24:49;;;;;;;31.55;21.98;;;;;;;0.37;91.90;103002.75;5091714;28;20479;-53
2023/01/28 08:27:15;;;;;;;32.63;23.15;;;;;;;0.37;91.17;103006.16;5092416;28;20035;-53
2023/01/28 08:29:40;;;;;;;31.15;22.38;;;;;;;0.38;90.18;102995.28;5092680;28;20070;-53
2023/01/28 08:32:05;;;;;;;30.85;21.95;;;;;;;0.40;89.52;103000.53;5092010;28;20036;-54
2023/01/28 08:34:30;;;;;;;31.90;23.08;;;;;;;0.43;90.22;103013.56;5092304;28;20028;-53
2023/01/28 08:36:56;;;;;;;30.13;22.10;;;;;;;0.49;91.33;102998.94;5092869;28;20069;-54
2023/01/28 08:39:21;;;;;;;29.42;21.65;;;;;;;0.56;89.29;103010.66;5091949;28;20020;-54
2023/01/28 08:41:46;;;;;;;29.85;21.85;;;;;;;0.61;88.96;103015.47;5092551;28;20529;-53
2023/01/28 08:44:11;;;;;;;31.70;23.02;;;;;;;0.64;88.68;103020.84;5092552;28;20062;-53
2023/01/28 08:46:37;;;;;;;31.08;22.67;;;;;;;0.67;88.17;103020.28;5091514;28;20491;-52
2023/01/28 08:49:02;;;;;;;30.90;22.50;;;;;;;0.69;87.88;103018.81;5092507;28;20025;-53
2023/01/28 08:51:27;;;;;;;31.58;21.80;;;;;;;0.69;88.26;103016.28;5092503;28;20066;-53
2023/01/28 08:53:52;;;;;;;29.52;21.27;;;;;;;0.69;88.02;103023.00;5091979;28;20077;-53
2023/01/28 08:56:18;;;;;;;33.67;23.95;;;;;;;0.70;89.77;103019.69;5092619;28;20386;-52
2023/01/28 08:58:43;;;;;;;32.47;24.13;;;;;;;0.71;89.31;103035.13;5092188;28;20046;-52
2023/01/28 09:01:09;;;;;;;32.40;22.55;;;;;;;0.73;89.72;103025.13;5091772;28;20046;-53
2023/01/28 09:03:35;;;;;;;33.35;23.48;;;;;;;0.76;89.72;103022.88;5091932;28;20822;-53
2023/01/28 09:06:02;;;;;;;35.30;23.90;;;;;;;0.79;88.84;103025.75;5092593;28;20024;-52
2023/01/28 09:08:27;;;;;;;33.13;23.95;;;;;;;0.85;88.90;103028.03;5091624;28;20047;-53
2023/01/28 09:10:59;;;;;;;30.77;23.25;;;;;;;0.86;89.02;103033.25;5092607;28;20476;-53
2023/01/28 09:13:24;;;;;;;30.27;22.67;;;;;;;0.81;87.83;103029.34;5091792;28;20027;-53
2023/01/28 09:15:50;;;;;;;32.70;23.65;;;;;;;0.82;89.58;103033.69;5092115;28;20107;-53
2023/01/28 09:18:17;;;;;;;33.92;23.52;;;;;;;0.75;88.88;103049.91;5092484;28;20023;-54
2023/01/28 09:20:42;;;;;;;32.45;23.73;;;;;;;0.70;88.75;103047.63;5091243;28;20020;-54
2023/01/28 09:23:08;;;;;;;46.03;30.00;;;;;;;0.65;89.86;103045.50;5092270;28;20040;-53
2023/01/28 09:25:35;;;;;;;43.35;28.63;;;;;;;0.59;89.49;103042.31;5091944;28;20024;-53
2023/01/28 09:28:00;;;;;;;38.70;28.10;;;;;;;0.57;89.07;103050.50;5091561;28;20031;-54
2023/01/28 09:30:26;;;;;;;31.65;23.38;;;;;;;0.54;88.37;103052.72;5091853;28;20103;-55
2023/01/28 09:32:53;;;;;;;30.42;23.90;;;;;;;0.56;88.02;103053.81;5092369;28;20020;-54
2023/01/28 09:35:18;;;;;;;30.58;23.55;;;;;;;0.52;87.64;103055.09;5091426;28;20566;-54
2023/01/28 09:37:45;;;;;;;31.77;23.40;;;;;;;0.48;88.20;103061.50;5092107;28;20103;-53
2023/01/28 09:40:17;;;;;;;31.45;24.08;;;;;;;0.52;89.26;103069.41;5093850;28;20024;-54
2023/01/28 09:42:50;;;;;;;29.38;22.90;;;;;;;0.55;88.33;103070.66;5094857;28;20157;-53
2023/01/28 09:45:23;;;;;;;30.42;23.35;;;;;;;0.61;87.10;103071.31;5095637;28;20036;-54
2023/01/28 09:47:52;;;;;;;31.77;23.73;;;;;;;0.67;87.11;103065.06;5095414;28;20407;-53
2023/01/28 09:50:25;;;;;;;32.00;23.63;;;;;;;0.75;86.93;103071.84;5094808;28;20521;-53
2023/01/28 09:52:55;;;;;;;30.48;23.38;;;;;;;0.77;87.53;103068.72;5095632;28;20042;-54
2023/01/28 09:55:34;;;;;;;30.42;23.55;;;;;;;0.80;87.43;103074.16;5095503;28;20099;-54
2023/01/28 09:58:00;;;;;;;28.65;21.80;;;;;;;0.82;87.14;103071.75;5095708;28;20119;-54
2023/01/28 10:00:35;;;;;;;28.58;22.95;;;;;;;0.81;87.59;103069.94;5095245;28;20020;-54
2023/01/28 10:03:17;;;;;;;29.73;22.77;;;;;;;0.79;87.30;103079.97;5094493;28;20028;-55
2023/01/28 10:06:05;;;;;;;30.40;22.75;;;;;;;0.76;86.68;103091.41;5095306;28;20024;-53
2023/01/28 10:08:52;;;;;;;31.50;23.20;;;;;;;0.74;88.59;103093.81;5094906;28;20028;-54
2023/01/28 10:11:36;;;;;;;26.50;21.77;;;;;;;0.74;87.20;103090.38;5094671;28;20054;-54
2023/01/28 10:14:11;;;;;;;31.00;23.35;;;;;;;0.67;87.70;103085.38;5095202;28;20361;-54
2023/01/28 10:16:53;;;;;;;29.60;21.92;;;;;;;0.67;86.93;103091.34;5094150;28;20102;-54
2023/01/28 10:19:26;;;;;;;27.77;21.80;;;;;;;0.60;86.26;103097.41;5094960;28;20476;-53
2023/01/28 10:21:51;;;;;;;27.27;21.75;;;;;;;0.62;87.91;103089.94;5095081;28;20379;-54
2023/01/28 10:24:24;;;;;;;25.75;20.55;;;;;;;0.63;87.19;103099.38;5094318;28;20107;-54
2023/01/28 10:26:50;;;;;;;26.48;21.17;;;;;;;0.67;87.60;103093.00;5094653;28;20027;-54
2023/01/28 10:29:19;;;;;;;26.45;20.77;;;;;;;0.73;87.93;103096.19;5095027;28;20058;-53
2023/01/28 10:32:25;;;;;;;25.00;19.30;;;;;;;0.77;88.09;103098.28;5093909;28;20028;-53
2023/01/28 10:34:52;;;;;;;25.98;19.80;;;;;;;0.75;87.53;103084.53;5067214;28;20127;-54
2023/01/28 10:37:18;;;;;;;28.38;20.83;;;;;;;0.73;87.35;103078.41;5094710;28;20026;-53
2023/01/28 10:39:44;;;;;;;26.58;20.67;;;;;;;0.70;86.84;103085.69;5093801;28;20087;-54
2023/01/28 10:42:29;;;;;;;27.25;19.98;;;;;;;0.72;88.14;103079.16;5094728;28;20058;-54
2023/01/28 10:45:16;;;;;;;25.23;18.85;;;;;;;0.71;86.95;103082.41;5093848;28;20101;-53
2023/01/28 10:48:28;;;;;;;25.30;19.65;;;;;;;0.68;86.43;103077.91;5094170;28;20119;-54
2023/01/28 10:51:00;;;;;;;29.02;21.08;;;;;;;0.68;86.73;103074.50;5094055;28;20020;-54
2023/01/28 10:53:37;;;;;;;26.95;20.00;;;;;;;0.75;87.19;103080.38;5093246;28;20385;-54
2023/01/28 10:56:06;;;;;;;28.70;21.55;;;;;;;0.81;87.36;103075.03;5094372;28;20051;-54
2023/01/28 10:58:35;;;;;;;27.33;19.65;;;;;;;0.83;87.94;103071.03;5094109;28;20020;-54
2023/01/28 11:01:04;;;;;;;26.60;20.10;;;;;;;0.75;87.24;103082.00;5093552;28;20016;-54
2023/01/28 11:03:30;;;;;;;27.50;20.42;;;;;;;0.75;88.16;103079.47;5093744;28;20044;-54
2023/01/28 11:05:57;;;;;;;28.25;21.50;;;;;;;0.74;88.17;103075.16;5090306;28;20030;-54
2023/01/28 11:08:24;;;;;;;29.98;22.05;;;;;;;0.72;88.24;103077.50;5082198;28;20028;-54
2023/01/28 11:10:51;;;;;;;30.65;20.85;;;;;;;0.65;88.38;103073.41;5083721;28;20020;-55
2023/01/28 11:13:24;;;;;;;30.15;21.80;;;;;;;0.64;88.49;103060.56;5090626;28;20440;-55
2023/01/28 11:16:02;;;;;;;26.98;20.23;;;;;;;0.69;88.65;103063.59;5093580;28;20031;-55
2023/01/28 11:18:31;;;;;;;27.92;20.75;;;;;;;0.73;88.63;103058.09;5090623;28;20017;-53
2023/01/28 11:21:00;;;;;;;31.10;22.67;;;;;;;0.79;87.48;103056.22;5080810;28;20086;-54
2023/01/28 11:23:28;;;;;;;30.25;21.98;;;;;;;0.90;88.16;103062.41;5081298;28;20043;-55
2023/01/28 11:26:06;;;;;;;29.65;21.50;;;;;;;0.97;87.63;103047.09;5081870;28;20020;-52
2023/01/28 11:28:31;;;;;;;;;;;;;;;1.14;88.72;103046.28;5080846;28;20021;-52
2023/01/28 11:30:59;;;;;;;25.98;19.23;;;;;;;1.26;85.93;103037.38;5082605;28;19924;-53
2023/01/28 11:33:32;;;;;;;26.05;18.60;;;;;;;1.34;85.08;103035.63;5073306;28;20056;-54
2023/01/28 11:36:04;;;;;;;34.25;18.90;;;;;;;1.50;83.96;103043.19;5072775;28;20036;-54
2023/01/28 11:38:29;;;;;;;28.05;21.55;;;;;;;1.56;85.53;103033.66;5073181;28;20039;-54
2023/01/28 11:40:57;;;;;;;27.50;20.80;;;;;;;1.51;84.20;103034.81;5073360;28;20021;-54
2023/01/28 11:43:25;;;;;;;31.35;22.08;;;;;;;1.67;86.86;103036.38;5072863;28;20348;-54
2023/01/28 11:46:09;;;;;;;;;;;;;;;1.76;86.92;103022.03;5073243;28;20081;-54
2023/01/28 11:49:14;;;;;;;16.88;13.40;;;;;;;1.63;82.58;103010.63;5106529;28;19992;-54
2023/01/28 11:51:51;;;;;;;14.43;10.75;;;;;;;1.89;81.23;102999.63;5113446;28;20027;-55
2023/01/28 11:54:20;;;;;;;14.05;10.63;;;;;;;1.93;81.07;102983.91;5113616;28;20042;-54
2023/01/28 11:56:45;;;;;;;14.43;11.52;;;;;;;2.04;79.05;102974.81;5112788;28;20089;-54
2023/01/28 11:59:35;;;;;;;18.38;13.25;;;;;;;2.20;80.08;102968.69;5113704;28;20028;-54